Tuesday, June 19, 2018, 12:59 AM EDT
Back to Local

KRKD, Rockland, Knox County Regional Airport

Location: Owls Head, ME, United States Lat: 44.067
Local Time: 12:59 AM EDT ( 4:59 GMT) Lon: -69.1
Time Zone: US/Eastern Elev: 55 ft

Show me the last for .
Show Decoded

2018-06-19 00:30 METAR KRKD 190430Z AUTO 25009KT 7SM -RA OVC004 18/18 A2953 RMK AO2 RAB11 P0001 =
2018-06-18 23:56 METAR KRKD 190356Z AUTO 23014KT 10SM OVC006 19/18 A2953 RMK AO2 RAE0258 SLP999
                 P0000 T01890178 =
2018-06-18 23:27 METAR KRKD 190327Z AUTO 25013KT 10SM BKN008 OVC110 19/18 A2954 RMK AO2 RAE0258
                 P0000 =
2018-06-18 22:56 METAR KRKD 190256Z AUTO 23009G16KT 10SM -RA FEW008 19/19 A2956 RMK AO2 RAB30
                 SLP012 P0000 60000 T01940189 56016 =
2018-06-18 22:09 METAR KRKD 190209Z AUTO 23010G19KT 10SM FEW009 21/19 A2958 RMK AO2 =
2018-06-18 21:56 METAR KRKD 190156Z AUTO 21009KT 10SM CLR 21/19 A2958 RMK AO2 SLP016 T02060189 =
2018-06-18 20:56 METAR KRKD 190056Z AUTO 24008KT 10SM FEW070 21/19 A2960 RMK AO2 PRESFR SLP024
                 T02060194 =
2018-06-18 19:56 METAR KRKD 182356Z AUTO 24007KT 10SM CLR 20/18 A2961 RMK AO2 SLP028 60001
                 T02000183 10228 20194 58018 =
2018-06-18 19:31 METAR KRKD 182331Z AUTO 23013G19KT 10SM FEW002 21/19 A2962 RMK AO2 =
2018-06-18 18:56 METAR KRKD 182256Z AUTO 22011G18KT 10SM FEW028 BKN100 BKN120 20/19 A2963 RMK AO2
                 PK WND 23027/2234 RAE53 SLP035 P0001 T02000194 =
2018-06-18 17:56 METAR KRKD 182156Z AUTO 23018G24KT 10SM -RA BKN110 20/17 A2965 RMK AO2 PK WND
                 22027/2123 RAB38 SLP040 P0000 T02000172 =
2018-06-18 16:56 METAR KRKD 182056Z AUTO 23016G25KT 10SM FEW070 21/17 A2966 RMK AO2 SLP047
                 T02110172 58024 =
2018-06-18 15:56 METAR KRKD 181956Z AUTO 24012G19KT 10SM CLR 22/17 A2969 RMK AO2 SLP055 T02170172
                 =
2018-06-18 14:56 METAR KRKD 181856Z AUTO 24012G19KT 10SM FEW001 21/17 A2972 RMK AO2 SLP064
                 T02110172 =
2018-06-18 13:56 METAR KRKD 181756Z AUTO 24018G22KT 10SM CLR 22/17 A2973 RMK AO2 SLP070 T02170167
                 10228 20144 58034 =
2018-06-18 12:56 METAR KRKD 181656Z AUTO 24009G18KT 10SM CLR 22/16 A2977 RMK AO2 SLP084 T02170161
                 =
2018-06-18 11:56 METAR KRKD 181556Z AUTO 21007KT 10SM CLR 19/16 A2980 RMK AO2 SLP094 T01940156 =
2018-06-18 10:56 METAR KRKD 181456Z AUTO 26012KT 10SM CLR 19/15 A2984 RMK AO2 SLP105 T01940150
                 58022 =
2018-06-18 09:56 METAR KRKD 181356Z AUTO 21007KT 160V220 10SM CLR 18/15 A2986 RMK AO2 SLP113
                 T01780150 =
2018-06-18 08:56 METAR KRKD 181256Z AUTO 22006KT 10SM CLR 17/14 A2988 RMK AO2 SLP120 T01670144 =
2018-06-18 07:56 METAR KRKD 181156Z AUTO 00000KT 10SM FEW002 14/14 A2990 RMK AO2 RAE50 SLP127
                 P0000 60000 T01440139 10144 20106 58016 =
2018-06-18 07:33 METAR KRKD 181133Z AUTO 25005KT 10SM SCT002 SCT050 14/13 A2992 RMK AO2 RAE32
                 P0000 =
2018-06-18 06:56 METAR KRKD 181056Z AUTO 25003KT 10SM -RA FEW055 BKN070 BKN090 13/13 A2992 RMK
                 AO2 RAB46 SLP133 P0000 T01330128 =
2018-06-18 06:18 METAR KRKD 181018Z AUTO 00000KT 8SM SCT002 12/12 A2993 RMK AO2 =
2018-06-18 05:56 METAR KRKD 180956Z AUTO 00000KT 8SM CLR 12/11 A2994 RMK AO2 SLP140 T01170111 =
2018-06-18 05:08 METAR KRKD 180908Z AUTO 00000KT 6SM BR FEW003 11/11 A2994 RMK AO2 =
2018-06-18 04:56 METAR KRKD 180856Z AUTO 00000KT 7SM BKN003 11/11 A2995 RMK AO2 SLP143 T01060106
                 56024 =
2018-06-18 03:56 METAR KRKD 180756Z AUTO 00000KT 6SM BR OVC003 11/11 A2997 RMK AO2 SLP151
                 T01060106 =
2018-06-18 03:24 METAR KRKD 180724Z AUTO 00000KT 7SM BKN003 11/10 A2998 RMK AO2 =
2018-06-18 02:56 METAR KRKD 180656Z AUTO 00000KT 7SM FEW003 11/10 A2999 RMK AO2 SLP158 T01060100
                 =
2018-06-18 02:39 METAR KRKD 180639Z AUTO 00000KT 8SM SCT003 11/11 A3000 RMK AO2 =
2018-06-18 02:14 METAR KRKD 180614Z AUTO 10003KT 4SM BR OVC001 11/11 A3001 RMK AO2 =
2018-06-18 01:56 METAR KRKD 180556Z AUTO 00000KT 2 1/2SM BR OVC001 11/11 A3002 RMK AO2 VIS 1
                 3/4V4 SLP167 T01110106 10117 20111 58013 =
2018-06-18 01:53 METAR KRKD 180553Z AUTO 00000KT 2 1/2SM BR OVC001 11/11 A3002 RMK AO2 VIS 1
                 3/4V4 =

Support USWX by starting your Amazon purchase here.